Wailuku, HI (96793)

10:28 PM HST die 25o October, anno 2014 (GMT -1000)
Kehalani | Change Station
CLOSE
Current Station
Personal Weather Stations
Location: Wailuku, HI
Elevation: 358 ft
Nearby Weather Stations

Elev 358 ft 20.87 °N, 156.50 °W | Updated 7 minutes ago

Mostly Cloudy
Plerumque Nubila
75.2 °F
Feels Like 75 °F
N
10.9
Ventus Variabilis Ventus from Magis Zephyrus quam Aquilo

Hodie
High -- | Low -- °F
--% Chance of Precip.
Yesterday
High -- | Low -- °F
Precip. -- in
6:25 AM 5:54 PM
Waxing Crescent, 6% visible
Pressio 30.05 in
Visibilitas 10.0 milia passuum
Clouds Few 4300 ft
Plerumque Nubila 5500 ft
Index Caloris 75 °F
Frigus in quo Ros apparet 71 °F
Umor 87%
Rainfall 0.00 in
Snow Depth Not available.
UV 0 out of 12
Pollen Not available.
Air Quality Not available.
Flu Activity Sporadic
METAR PHOG 260754Z 06013G21KT 10SM FEW043 BKN055 25/21 A3004 RMK AO2 RAB07E35 SLP176 P0000 T02500211 $

More Conditions Fewer Conditions

Pressio 30.05 in
Visibilitas 10.0 milia passuum
Clouds Few 4300 ft
Plerumque Nubila 5500 ft
Index Caloris 75 °F
Frigus in quo Ros apparet 71 °F
Umor 87%
Rainfall 0.00 in
Snow Depth Not available.
UV 0 out of 12
Pollen Not available.
Air Quality Not available.
Flu Activity Sporadic
METAR PHOG 260754Z 06013G21KT 10SM FEW043 BKN055 25/21 A3004 RMK AO2 RAB07E35 SLP176 P0000 T02500211 $

More Conditions Fewer Conditions

10-Day Weather Forecast

Almanac

Astronomy

Oct. 25, 2014 Rise Set
Actual Time 6:25 AM HST 5:54 PM HST
Civil Twilight 6:02 AM HST 6:17 PM HST
Nautical Twilight 5:36 AM HST 6:43 PM HST
Astronomical Twilight 5:10 AM HST 7:09 PM HST
Moon 8:05 AM HST (10/25) 7:37 PM HST (10/25)
Length Of Visible Light 12h 14m
Length of Day
11h 29m
Tomorrow will be 1m 5s shorter.
Waxing Crescent, 6% of the Moon is Illuminated
Oct 26
Waxing Crescent
Oct 30
First Quarter
Nov 6
Full
Nov 14
Last Quarter
Nov 22
New

Yesterday's Extremes

State Highs State Lows

Community

WunderPhotos

Upload Photos

1,765,125 photos uploaded!

Nearby

Snow Depth

Station Depth Elevation
No new snow has been reported.

Earthquake Activity

City Distance Mag. Time & Date
No recent earthquake activity has been reported nearby.
Minimum magnitude displayed is 2.5.

Coastal Water Temperatures

Locus Calor
No Stations Reporting

Nearby Weather Stations